Flight Track Log - Related Links

Times and Time Zones

All times are in EDT time to prevent confusion due to time zone crossing. See the TSU191 flight status page for this flight to view local times or setup timezone preferences in your user account.

Time Position Orientation Groundspeed Altitude Reporting Facility
EDT Latitude Longitude Course Direction KTS MPH feet Rate Location/Type
Fri 01:24:23 PM 43.1500 -79.9000 360° North 10 12 800  Level Toronto Center
Fri 01:25:23 PM 43.1667 -79.9000 360° North 20 23 800  Level Toronto Center
Fri 01:27:23 PM 43.1667 -79.9000 180° South 20 23 800  Level Toronto Center
Fri 01:28:23 PM 43.1667 -79.9333 270° West 30 35 800  Level Toronto Center
Fri 01:29:23 PM 43.1667 -79.9333 270° West 10 12 800 333 Level Toronto Center
Fri 01:31:23 PM 43.1667 -79.8833 90° East 130 150 1,800 800 Climbing Toronto Center
Fri 01:32:23 PM 43.1333 -79.8333 132° Southeast 170 196 3,200 1,300 Climbing Toronto Center
Fri 01:33:23 PM 43.1000 -79.8000 144° Southeast 200 230 4,400 1,250 Climbing Toronto Center
Fri 01:34:23 PM 43.0833 -79.8667 251° West 220 253 5,700 1,700 Climbing Toronto Center
Fri 01:35:23 PM 43.1000 -79.9333 289° West 240 276 7,800 1,800 Climbing Toronto Center
Fri 01:36:23 PM 43.1167 -80.0167 285° West 230 265 9,300 1,550 Climbing Toronto Center
Fri 01:37:23 PM 43.1167 -80.1167 270° West 230 265 10,900 1,700 Climbing Toronto Center
Fri 01:38:23 PM 43.1000 -80.2000 255° West 230 265 12,700 1,550 Climbing Toronto Center
Fri 01:39:23 PM 43.1000 -80.2667 270° West 220 253 14,000 750 Climbing Toronto Center
Fri 01:40:23 PM 43.0833 -80.3667 257° West 240 276 14,200 50 Climbing Toronto Center
Fri 01:41:23 PM 43.0833 -80.4833 270° West 270 311 14,100  Descending Toronto Center
Fri 01:42:23 PM 43.0667 -80.5833 257° West 290 334 14,200 50 Climbing Toronto Center
Fri 01:43:23 PM 43.0500 -80.7000 259° West 290 334 14,200 -50 Level Toronto Center
Fri 01:44:23 PM 43.0500 -80.8000 270° West 290 334 14,100  Descending Toronto Center
Fri 01:45:23 PM 43.0333 -80.9167 259° West 290 334 14,200 50 Climbing Toronto Center
Fri 01:46:23 PM 43.0333 -81.0167 270° West 290 334 14,200  Level Toronto Center
Fri 01:47:23 PM 43.0333 -81.1333 270° West 280 322 14,200 -50 Level Toronto Center
Fri 01:48:00 PM 43.0333 -81.1171 270° West  Level FlightAware Approximate
Fri 01:48:23 PM 43.0167 -81.2333 257° West 280 322 14,100  Level Toronto Center
Fri 01:49:23 PM 43.0000 -81.3167 255° West 280 322 14,100  Level Toronto Center
Fri 01:50:23 PM 42.9667 -81.4333 249° West 280 322 14,100  Level Toronto Center
Fri 01:51:23 PM 42.9333 -81.5167 241° Southwest 280 322 14,100 -200 Level Toronto Center
Fri 01:52:23 PM 42.9167 -81.6333 259° West 280 322 13,700 -550 Descending Toronto Center
Fri 01:53:23 PM 42.8833 -81.7333 246° West 290 334 13,000 -667 Descending Toronto Center
Fri 01:54:47 PM 42.8572 -81.8861 257° West 288 331 12,100 -458 Descending Cleveland Center
Fri 01:55:47 PM 42.8308 -81.9872 250° West 288 331 11,900 -793 Descending Cleveland Center
Fri 01:56:48 PM 42.8047 -82.0944 252° West 288 331 10,500 -1,091 Descending Cleveland Center
Fri 01:57:48 PM 42.7761 -82.1983 249° West 293 337 9,700 -1,084 Descending Cleveland Center
Fri 01:59:23 PM 42.7500 -82.3500 257° West 290 334 7,700 -1,200 Descending Toronto Center
Fri 01:59:48 PM 42.7500 -82.4069 270° West 288 331 7,300 -786 Descending Cleveland Center
Fri 02:00:47 PM 42.7528 -82.4917 273° West 288 331 6,600 -650 Descending Cleveland Center
Fri 02:01:48 PM 42.7550 -82.6078 272° West 280 322 6,000 -353 Descending Cleveland Center
Fri 02:02:12 PM 42.7519 -82.6614 266° West 280 322 6,100 100 Climbing Cleveland Center
Fri 02:02:48 PM 42.7511 -82.7150 269° West 285 328 6,100 -90 Level Cleveland Center
Fri 02:03:19 PM 42.7414 -82.7825 259° West 283 326 6,000 -400 Descending Cleveland Center
Fri 02:03:48 PM 42.7406 -82.8306 269° West 285 328 5,700 -968 Descending Cleveland Center
Fri 02:04:21 PM 42.7372 -82.8900 266° West 284 327 5,000 -1,085 Descending Cleveland Center
Fri 02:05:22 PM 42.7331 -82.9944 267° West 273 314 4,000 -439 Descending Cleveland Center
Fri 02:06:24 PM 42.7331 -83.0933 270° West 232 267 4,100 49 Climbing Cleveland Center
Fri 02:07:25 PM 42.7353 -83.1753 272° West 220 253 4,100 -344 Level Cleveland Center
Fri 02:08:26 PM 42.7397 -83.2547 274° West 208 239 3,400 -492 Descending Cleveland Center
Fri 02:09:27 PM 42.7400 -83.3367 270° West 199 229 3,100 -195 Descending Cleveland Center
Fri 02:10:29 PM 42.7339 -83.4072 263° West 185 213 3,000 -279 Descending Cleveland Center
Fri 02:11:36 PM 42.7097 -83.4625 239° Southwest 159 183 2,500 -563 Descending Cleveland Center
Fri 02:12:37 PM 42.6764 -83.4611 178° South 119 137 1,800 -689 Descending Cleveland Center
Fri 02:14:00 PM 42.6656 -83.4205 154° Southeast  Level Estimated
Fri 02:21:00 PM 42.6656 -83.4205 154° Southeast  Level Estimated
Fri 02:22:00 PM 42.6656 -83.4205 154° Southeast  Level Estimated

Login

Don't have an account? Register now (free) for customized features, flight alerts, and more!